Time;durP1;ratioP1;P1;durP2;ratioP2;P2;SDS_P1;SDS_P2;PMS_P1;PMS_P2;Temp;Humidity;BMP_temperature;BMP_pressure;BME280_temperature;BME280_humidity;BME280_pressure;Samples;Min_cycle;Max_cycle;Signal;HPM_P1;HPM_P2
2022/11/13 00:01:16;;;;;;;29.82;21.35;;;;;;;20.00;44.18;102460.64;1775290;80;21071;-92
2022/11/13 00:03:42;;;;;;;27.30;20.40;;;;;;;20.00;44.17;102464.78;1775424;79;20985;-92
2022/11/13 00:06:10;;;;;;;28.30;21.17;;;;;;;19.99;44.17;102458.97;1775039;79;21033;-92
2022/11/13 00:08:36;;;;;;;26.35;19.70;;;;;;;20.00;44.17;102463.95;1775297;80;21044;-92
2022/11/13 00:11:11;;;;;;;28.45;21.23;;;;;;;19.99;44.17;102455.38;1775335;80;21634;-92
2022/11/13 00:13:38;;;;;;;26.30;20.50;;;;;;;19.98;44.17;102457.34;1775083;80;21283;-92
2022/11/13 00:16:06;;;;;;;28.27;21.10;;;;;;;19.99;44.17;102451.23;1775356;80;21013;-92
2022/11/13 00:18:34;;;;;;;28.98;21.45;;;;;;;19.99;44.16;102450.69;1775561;80;21032;-92
2022/11/13 00:21:12;;;;;;;24.90;20.10;;;;;;;19.98;44.17;102455.95;1775183;80;20997;-92
2022/11/13 00:23:44;;;;;;;26.97;20.32;;;;;;;19.98;44.14;102456.50;1775417;80;21065;-91
2022/11/13 00:26:16;;;;;;;27.75;20.50;;;;;;;19.97;44.14;102443.23;1775201;80;21162;-92
2022/11/13 00:28:42;;;;;;;26.48;19.90;;;;;;;19.97;44.13;102436.87;1775446;80;21104;-92
2022/11/13 00:31:09;;;;;;;25.23;19.57;;;;;;;19.97;44.14;102436.87;1775387;80;21040;-92
2022/11/13 00:33:36;;;;;;;28.23;19.73;;;;;;;19.97;44.13;102439.09;1775039;80;21065;-92
2022/11/13 00:36:05;;;;;;;27.50;21.02;;;;;;;19.97;44.14;102443.23;1775299;80;21104;-91
2022/11/13 00:38:31;;;;;;;26.45;19.30;;;;;;;19.96;44.13;102436.05;1775349;80;21546;-92
2022/11/13 00:40:58;;;;;;;27.15;20.43;;;;;;;19.97;44.13;102441.02;1774850;79;21032;-92
2022/11/13 00:43:24;;;;;;;28.95;21.15;;;;;;;19.97;44.12;102436.87;1775345;80;20929;-92
2022/11/13 00:45:50;;;;;;;29.10;19.37;;;;;;;19.97;44.12;102438.27;1775275;80;21053;-93
2022/11/13 00:48:17;;;;;;;25.57;18.95;;;;;;;19.96;44.12;102433.28;1755190;80;21052;-93
2022/11/13 00:50:43;;;;;;;26.90;20.20;;;;;;;19.95;44.10;102442.67;1775315;80;21200;-92
2022/11/13 00:53:10;;;;;;;28.07;19.25;;;;;;;19.96;44.11;102445.72;1775361;80;21452;-93
2022/11/13 00:55:36;;;;;;;27.55;19.92;;;;;;;19.96;44.10;102440.73;1775123;80;21056;-92
2022/11/13 00:58:03;;;;;;;26.42;19.67;;;;;;;19.95;44.08;102444.05;1757210;80;21015;-92
2022/11/13 01:00:31;;;;;;;27.15;19.70;;;;;;;19.96;44.07;102444.88;1729304;82;21090;-93
2022/11/13 01:02:59;;;;;;;28.70;20.12;;;;;;;19.95;44.08;102438.52;1709973;83;40696;-92
2022/11/13 01:05:25;;;;;;;27.25;19.60;;;;;;;19.95;44.08;102439.91;1728858;81;21093;-92
2022/11/13 01:07:52;;;;;;;23.62;19.12;;;;;;;19.95;44.07;102439.08;1729015;82;21019;-92
2022/11/13 01:10:19;;;;;;;25.60;19.02;;;;;;;19.95;44.06;102437.14;1729140;83;21055;-91
2022/11/13 01:12:45;;;;;;;27.05;19.10;;;;;;;19.95;44.07;102440.45;1728922;83;21066;-91
2022/11/13 01:15:12;;;;;;;25.30;19.15;;;;;;;19.95;44.06;102440.45;1729075;82;22155;-92
2022/11/13 01:17:39;;;;;;;26.73;19.05;;;;;;;19.94;44.06;102438.23;1728949;83;21110;-93
2022/11/13 01:20:11;;;;;;;27.07;19.12;;;;;;;19.94;44.04;102435.48;1728883;83;21501;-92
2022/11/13 01:22:37;;;;;;;26.52;20.00;;;;;;;19.93;44.04;102433.01;1729182;82;21094;-92
2022/11/13 01:25:04;;;;;;;26.97;19.52;;;;;;;19.94;44.04;102433.30;1729171;83;21075;-92
2022/11/13 01:27:30;;;;;;;26.17;19.98;;;;;;;19.93;44.04;102442.12;1728973;83;21170;-92
2022/11/13 01:29:57;;;;;;;27.37;20.62;;;;;;;19.93;44.03;102437.15;1729228;82;20991;-92
2022/11/13 01:32:23;;;;;;;23.95;18.25;;;;;;;19.93;44.02;102438.53;1729251;83;21466;-92
2022/11/13 01:34:49;;;;;;;25.17;18.92;;;;;;;19.92;44.01;102437.70;1728991;82;21063;-92
2022/11/13 01:37:15;;;;;;;25.50;18.92;;;;;;;19.91;44.02;102433.27;1710351;83;21039;-92
2022/11/13 01:39:42;;;;;;;24.00;18.62;;;;;;;19.91;44.01;102438.80;1729162;83;21079;-92
2022/11/13 01:42:08;;;;;;;26.82;18.62;;;;;;;19.92;44.01;102437.70;1728783;82;20986;-92
2022/11/13 01:44:53;;;;;;;26.75;20.60;;;;;;;19.91;44.01;102440.17;1729316;83;21350;-92
2022/11/13 01:47:19;;;;;;;24.98;18.70;;;;;;;19.90;43.98;102438.51;1728870;82;21057;-91
2022/11/13 01:49:46;;;;;;;26.75;20.48;;;;;;;19.91;43.98;102437.96;1729309;83;21012;-92
2022/11/13 01:52:19;;;;;;;23.38;19.12;;;;;;;19.90;43.96;102441.27;1729240;82;21451;-91
2022/11/13 01:54:54;;;;;;;24.77;18.07;;;;;;;19.90;43.95;102439.09;1729154;83;21353;-91
2022/11/13 01:57:20;;;;;;;26.05;18.87;;;;;;;19.90;43.96;102434.95;1710408;83;21110;-91
2022/11/13 01:59:50;;;;;;;23.47;18.40;;;;;;;19.90;43.95;102442.66;1759466;81;21437;-91
2022/11/13 02:02:17;;;;;;;27.30;19.45;;;;;;;19.88;43.95;102437.97;1766601;81;21021;-91
2022/11/13 02:04:43;;;;;;;24.92;18.82;;;;;;;19.89;43.93;102439.64;1736662;79;21127;-90
2022/11/13 02:07:12;;;;;;;24.45;19.12;;;;;;;19.87;43.93;102429.40;1766562;81;21076;-90
2022/11/13 02:09:50;;;;;;;27.95;20.40;;;;;;;19.88;43.93;102431.06;1736203;81;21076;-92
2022/11/13 02:12:38;;;;;;;26.30;18.23;;;;;;;19.89;43.93;102432.73;1766510;81;21009;-92
2022/11/13 02:15:05;;;;;;;22.95;18.02;;;;;;;19.88;43.92;102428.30;1748310;81;21041;-92
2022/11/13 02:17:43;;;;;;;25.32;18.57;;;;;;;19.87;43.90;102429.40;1766903;81;21124;-92
2022/11/13 02:20:10;;;;;;;24.43;19.60;;;;;;;19.86;43.90;102430.50;1766563;80;20998;-91
2022/11/13 02:22:44;;;;;;;25.65;19.17;;;;;;;19.86;43.91;102429.11;1766646;81;21052;-92
2022/11/13 02:25:13;;;;;;;23.98;18.07;;;;;;;19.86;43.90;102433.25;1766683;81;21523;-91
2022/11/13 02:27:47;;;;;;;23.80;18.67;;;;;;;19.85;43.90;102434.38;1766353;81;21508;-91
2022/11/13 02:30:20;;;;;;;23.07;18.42;;;;;;;19.84;43.88;102429.95;1766659;81;21134;-91
2022/11/13 02:32:50;;;;;;;24.85;17.80;;;;;;;19.85;43.87;102428.03;1766511;81;21009;-92
2022/11/13 02:35:21;;;;;;;24.35;18.25;;;;;;;19.83;43.87;102426.91;1736277;81;21031;-91
2022/11/13 02:37:48;;;;;;;23.10;18.32;;;;;;;19.83;43.85;102423.31;1763850;81;20998;-91
2022/11/13 02:40:14;;;;;;;26.25;18.17;;;;;;;19.84;43.85;102425.81;1766619;81;21041;-91
2022/11/13 02:42:40;;;;;;;26.80;19.12;;;;;;;19.85;43.83;102426.64;1766835;81;21134;-91
2022/11/13 02:45:07;;;;;;;23.00;17.65;;;;;;;19.84;43.83;102423.05;1736736;81;20941;-91
2022/11/13 02:47:39;;;;;;;25.00;18.85;;;;;;;19.82;43.82;102416.95;1766530;81;21486;-91
2022/11/13 02:50:07;;;;;;;25.12;17.57;;;;;;;19.82;43.82;102422.48;1766396;81;21084;-92
2022/11/13 02:52:33;;;;;;;26.65;18.07;;;;;;;19.82;43.82;102419.72;1766515;81;20954;-91
2022/11/13 02:54:59;;;;;;;24.80;17.50;;;;;;;19.82;43.82;102417.50;1736384;81;21162;-92
2022/11/13 02:57:25;;;;;;;25.02;18.05;;;;;;;19.82;43.76;102425.24;1766873;81;21103;-91
2022/11/13 02:59:52;;;;;;;23.27;18.02;;;;;;;19.83;43.78;102421.93;1772710;80;21401;-91
2022/11/13 03:02:18;;;;;;;22.20;17.55;;;;;;;19.81;43.75;102418.08;1775258;80;21072;-90
2022/11/13 03:04:45;;;;;;;23.35;17.25;;;;;;;19.81;43.76;102413.94;1775262;79;20989;-91
2022/11/13 03:07:12;;;;;;;24.92;18.48;;;;;;;19.81;43.75;102418.08;1775569;80;21114;-92
2022/11/13 03:09:39;;;;;;;24.80;17.87;;;;;;;19.81;43.76;102413.11;1775018;80;21532;-91
2022/11/13 03:12:07;;;;;;;24.32;17.50;;;;;;;19.81;43.74;102409.80;1775530;80;21084;-91
2022/11/13 03:14:33;;;;;;;23.92;18.00;;;;;;;19.81;43.72;102408.96;1775450;80;21575;-92
2022/11/13 03:16:59;;;;;;;22.20;18.05;;;;;;;19.81;43.74;102414.48;1775151;80;21099;-91
2022/11/13 03:19:26;;;;;;;24.72;17.57;;;;;;;19.81;43.72;102413.11;1775289;80;21144;-92
2022/11/13 03:21:52;;;;;;;25.62;17.87;;;;;;;19.81;43.72;102407.58;1775467;80;21430;-91
2022/11/13 03:24:18;;;;;;;23.10;17.75;;;;;;;19.81;43.69;102406.20;1775322;80;21012;-91
2022/11/13 03:26:45;;;;;;;23.40;17.17;;;;;;;19.80;43.71;102408.12;1775463;80;21036;-91
2022/11/13 03:29:11;;;;;;;24.12;17.70;;;;;;;19.81;43.68;102411.17;1775456;80;21582;-91
2022/11/13 03:31:37;;;;;;;21.10;16.40;;;;;;;19.80;43.67;102413.66;1775123;80;21240;-92
2022/11/13 03:34:04;;;;;;;20.52;16.20;;;;;;;19.81;43.67;102400.67;1775365;80;21071;-91
2022/11/13 03:36:30;;;;;;;24.15;17.32;;;;;;;19.79;43.67;102403.70;1775378;80;21031;-92
2022/11/13 03:38:56;;;;;;;23.73;17.40;;;;;;;19.79;43.66;102407.84;1755409;80;21104;-92
2022/11/13 03:41:22;;;;;;;21.90;16.37;;;;;;;19.79;43.66;102406.46;1775053;79;21048;-92
2022/11/13 03:43:49;;;;;;;21.85;16.95;;;;;;;19.79;43.66;102399.56;1775467;80;21064;-91
2022/11/13 03:46:15;;;;;;;22.90;16.30;;;;;;;19.79;43.64;102401.48;1774934;80;21567;-91
2022/11/13 03:48:41;;;;;;;24.25;17.00;;;;;;;19.79;43.63;102398.18;1755634;80;21008;-91
2022/11/13 03:51:07;;;;;;;21.62;16.37;;;;;;;19.78;43.63;102384.08;1775389;80;21072;-91
2022/11/13 03:53:34;;;;;;;21.10;16.97;;;;;;;19.78;43.61;102392.37;1774918;80;21028;-92
2022/11/13 03:56:00;;;;;;;20.55;16.52;;;;;;;19.78;43.60;102390.98;1775393;80;20973;-91
2022/11/13 03:58:26;;;;;;;23.05;16.75;;;;;;;19.78;43.60;102386.84;1775215;80;21053;-91
2022/11/13 04:00:54;;;;;;;23.67;16.77;;;;;;;19.79;43.60;102394.58;1759042;80;21013;-91
2022/11/13 04:03:20;;;;;;;21.97;16.48;;;;;;;19.79;43.57;102384.92;1759197;81;21545;-91
2022/11/13 04:05:48;;;;;;;21.15;16.93;;;;;;;19.78;43.56;102382.70;1759555;80;21045;-91
2022/11/13 04:08:14;;;;;;;22.55;16.60;;;;;;;19.78;43.54;102389.61;1759094;81;21527;-91
2022/11/13 04:10:41;;;;;;;23.18;16.67;;;;;;;19.78;43.54;102387.39;1759414;80;21006;-91
2022/11/13 04:13:07;;;;;;;20.90;15.95;;;;;;;19.76;43.50;102376.64;1759373;81;21053;-91
2022/11/13 04:15:34;;;;;;;21.48;15.60;;;;;;;19.76;43.51;102379.41;1759253;80;21045;-91
2022/11/13 04:18:00;;;;;;;21.68;16.20;;;;;;;19.77;43.50;102381.06;1759500;81;21362;-92
2022/11/13 04:20:29;;;;;;;20.40;16.32;;;;;;;19.77;43.50;102384.38;1759262;81;21216;-91
2022/11/13 04:22:56;;;;;;;19.23;15.40;;;;;;;19.76;43.49;102378.57;1740012;81;20990;-91
2022/11/13 04:25:23;;;;;;;21.65;16.00;;;;;;;19.75;43.45;102370.83;1759262;81;21476;-91
2022/11/13 04:27:51;;;;;;;23.15;15.53;;;;;;;19.76;43.47;102382.16;1759328;81;21017;-91
2022/11/13 04:30:18;;;;;;;20.05;15.55;;;;;;;19.75;43.46;102374.14;1759088;81;21033;-91
2022/11/13 04:32:44;;;;;;;19.80;15.58;;;;;;;19.76;43.45;102373.05;1759417;81;21030;-91
2022/11/13 04:35:10;;;;;;;19.73;15.70;;;;;;;19.75;43.45;102382.42;1759229;81;20986;-91
2022/11/13 04:37:43;;;;;;;19.82;15.58;;;;;;;19.75;43.45;102382.42;1759066;81;21112;-91
2022/11/13 04:40:10;;;;;;;20.25;15.08;;;;;;;19.75;43.44;102378.28;1759307;81;21511;-91
2022/11/13 04:42:48;;;;;;;20.72;15.50;;;;;;;19.75;43.44;102383.80;1758977;81;21533;-92
2022/11/13 04:45:18;;;;;;;19.90;15.40;;;;;;;19.74;43.43;102377.45;1759059;81;21240;-91
2022/11/13 04:47:44;;;;;;;19.55;14.35;;;;;;;19.74;43.41;102379.37;1758890;80;21081;-91
2022/11/13 04:50:10;;;;;;;19.90;15.20;;;;;;;19.73;43.42;102368.88;1759279;80;21065;-91
2022/11/13 04:52:37;;;;;;;18.95;15.18;;;;;;;19.73;43.38;102375.78;1759089;80;21509;-91
2022/11/13 04:55:04;;;;;;;18.23;14.45;;;;;;;19.73;43.39;102373.60;1759424;81;21005;-91
2022/11/13 04:57:30;;;;;;;20.02;14.78;;;;;;;19.73;43.37;102387.41;1759230;80;21767;-91
2022/11/13 04:59:56;;;;;;;20.27;14.33;;;;;;;19.72;43.37;102385.20;1772024;80;21107;-91
2022/11/13 05:02:23;;;;;;;21.75;14.85;;;;;;;19.73;43.39;102381.31;1786045;80;21013;-91
2022/11/13 05:04:49;;;;;;;20.25;15.03;;;;;;;19.71;43.37;102379.39;1786126;79;21099;-91
2022/11/13 05:07:15;;;;;;;19.92;14.60;;;;;;;19.73;43.36;102379.13;1785834;80;21064;-91
2022/11/13 05:09:41;;;;;;;19.57;14.47;;;;;;;19.71;43.34;102378.56;1785942;80;21043;-91
2022/11/13 05:12:08;;;;;;;20.77;14.98;;;;;;;19.72;43.32;102382.98;1786091;80;21490;-91
2022/11/13 05:14:38;;;;;;;19.17;13.78;;;;;;;19.71;43.33;102382.70;1785974;80;21028;-91
2022/11/13 05:17:04;;;;;;;20.02;14.65;;;;;;;19.70;43.30;102378.27;1786364;80;21008;-92
2022/11/13 05:19:33;;;;;;;18.15;14.15;;;;;;;19.71;43.30;102381.31;1786213;80;21072;-91
2022/11/13 05:22:00;;;;;;;19.85;13.90;;;;;;;19.71;43.29;102386.84;1785772;80;21816;-90
2022/11/13 05:24:26;;;;;;;18.90;13.93;;;;;;;19.70;43.27;102384.62;1786121;80;21047;-91
2022/11/13 05:26:53;;;;;;;20.37;15.25;;;;;;;19.70;43.27;102383.80;1786382;80;21073;-90
2022/11/13 05:29:19;;;;;;;19.15;14.15;;;;;;;19.69;43.25;102381.58;1785719;80;21640;-91
2022/11/13 05:31:46;;;;;;;19.35;14.63;;;;;;;19.69;43.25;102384.34;1786200;80;21477;-91
2022/11/13 05:34:12;;;;;;;18.00;14.20;;;;;;;19.68;43.21;102389.61;1786034;80;21000;-91
2022/11/13 05:36:38;;;;;;;18.82;15.00;;;;;;;19.68;43.23;102393.75;1785860;80;21128;-91
2022/11/13 05:39:05;;;;;;;19.75;14.15;;;;;;;19.69;43.21;102398.14;1786233;79;22313;-91
2022/11/13 05:41:37;;;;;;;21.12;15.40;;;;;;;19.69;43.20;102406.43;1786012;80;21063;-91
2022/11/13 05:44:03;;;;;;;17.52;14.25;;;;;;;19.67;43.18;102398.98;1785828;80;20993;-90
2022/11/13 05:46:29;;;;;;;17.42;13.75;;;;;;;19.67;43.17;102403.13;1785919;80;21550;-91
2022/11/13 05:48:58;;;;;;;18.95;14.15;;;;;;;19.67;43.14;102405.06;1744902;81;21017;-91
2022/11/13 05:51:28;;;;;;;20.52;14.07;;;;;;;19.67;43.14;102409.20;1703340;83;21011;-91
2022/11/13 05:53:54;;;;;;;19.73;15.58;;;;;;;19.66;43.12;102413.05;1721821;82;20893;-90
2022/11/13 05:56:26;;;;;;;18.92;14.07;;;;;;;19.65;43.09;102416.36;1722083;82;21040;-91
2022/11/13 05:58:55;;;;;;;21.75;14.98;;;;;;;19.66;43.09;102415.81;1721215;82;21033;-91
2022/11/13 06:01:28;;;;;;;17.70;13.95;;;;;;;19.65;43.08;102416.94;1721738;81;21028;-91
2022/11/13 06:03:55;;;;;;;19.12;14.90;;;;;;;19.66;43.08;102419.95;1721717;82;21049;-91
2022/11/13 06:06:29;;;;;;;19.17;14.95;;;;;;;19.65;43.07;102415.56;1703099;83;21045;-91
2022/11/13 06:08:56;;;;;;;19.55;14.23;;;;;;;19.64;43.07;102414.73;1721907;82;21035;-91
2022/11/13 06:11:24;;;;;;;18.20;14.20;;;;;;;19.63;43.02;102413.61;1721932;82;21193;-91
2022/11/13 06:13:51;;;;;;;19.87;14.35;;;;;;;19.63;43.03;102414.98;1721481;82;21024;-91
2022/11/13 06:16:25;;;;;;;19.92;14.80;;;;;;;19.64;43.02;102419.41;1703592;83;20994;-91
2022/11/13 06:18:57;;;;;;;19.67;14.43;;;;;;;19.63;43.03;102418.59;1721866;82;21463;-91
2022/11/13 06:21:27;;;;;;;20.52;15.32;;;;;;;19.63;43.02;102419.13;1721593;82;21048;-91
2022/11/13 06:23:54;;;;;;;21.55;15.45;;;;;;;19.63;43.01;102419.13;1722136;82;21535;-92
2022/11/13 06:26:23;;;;;;;18.75;14.55;;;;;;;19.62;42.99;102416.92;1686752;83;21043;-91
2022/11/13 06:28:50;;;;;;;19.25;15.28;;;;;;;19.61;43.00;102417.47;1705089;83;21087;-91
2022/11/13 06:31:22;;;;;;;17.98;14.05;;;;;;;19.61;42.99;102411.11;1736391;82;21037;-92
2022/11/13 06:33:48;;;;;;;18.32;13.55;;;;;;;19.62;42.97;102404.49;1736261;82;21567;-91
2022/11/13 06:36:23;;;;;;;19.95;13.88;;;;;;;19.62;42.96;102405.87;1736121;82;21154;-91
2022/11/13 06:38:49;;;;;;;20.00;14.93;;;;;;;19.61;42.97;102402.28;1736013;82;21021;-91
2022/11/13 06:41:19;;;;;;;18.98;14.35;;;;;;;19.61;42.95;102400.90;1736170;81;21049;-93
2022/11/13 06:43:46;;;;;;;18.98;14.35;;;;;;;19.61;42.95;102399.52;1735978;82;21029;-91
2022/11/13 06:46:16;;;;;;;18.57;14.43;;;;;;;19.61;42.95;102402.83;1736319;82;21025;-92
2022/11/13 06:48:43;;;;;;;18.40;14.20;;;;;;;19.61;42.95;102402.83;1707472;82;21307;-92
2022/11/13 06:51:21;;;;;;;20.02;14.28;;;;;;;19.60;42.96;102402.57;1735903;82;20986;-92
2022/11/13 06:53:48;;;;;;;18.12;14.07;;;;;;;19.61;42.95;102402.28;1736484;81;21094;-92
2022/11/13 06:56:15;;;;;;;21.12;14.20;;;;;;;19.60;42.95;102404.75;1736029;82;21469;-91
2022/11/13 06:58:42;;;;;;;19.73;14.87;;;;;;;19.61;42.95;102405.59;1736406;82;21032;-91
2022/11/13 07:01:15;;;;;;;19.42;14.15;;;;;;;19.61;42.95;102406.97;1735879;81;21511;-91
2022/11/13 07:03:41;;;;;;;17.98;13.95;;;;;;;19.62;42.93;102410.02;1735978;82;21069;-91
2022/11/13 07:06:14;;;;;;;17.07;13.90;;;;;;;19.62;42.93;102408.64;1736034;81;21034;-92
2022/11/13 07:08:42;;;;;;;20.10;14.78;;;;;;;19.62;42.92;102414.16;1736279;82;21100;-92
2022/11/13 07:11:11;;;;;;;22.52;14.00;;;;;;;19.63;42.93;102419.13;1735353;82;21523;-92
2022/11/13 07:13:37;;;;;;;17.07;13.70;;;;;;;19.62;42.92;102415.54;1736126;82;21254;-92
2022/11/13 07:16:05;;;;;;;19.60;14.35;;;;;;;19.63;42.91;102414.44;1736246;82;21385;-91
2022/11/13 07:18:32;;;;;;;18.73;13.98;;;;;;;19.64;42.91;102416.66;1735769;81;21049;-91
2022/11/13 07:21:00;;;;;;;18.25;13.48;;;;;;;19.63;42.88;102417.20;1736275;82;21037;-91
2022/11/13 07:23:35;;;;;;;18.00;14.13;;;;;;;19.63;42.88;102417.75;1735799;82;21057;-92
2022/11/13 07:26:09;;;;;;;18.27;14.07;;;;;;;19.63;42.88;102420.52;1735844;82;21103;-91
2022/11/13 07:28:36;;;;;;;16.15;13.35;;;;;;;19.62;42.87;102416.92;1736123;82;21005;-91
2022/11/13 07:31:02;;;;;;;18.02;14.15;;;;;;;19.62;42.87;102418.30;1736229;82;21080;-93
2022/11/13 07:33:29;;;;;;;16.48;13.70;;;;;;;19.61;42.88;102417.47;1736095;82;21026;-91
2022/11/13 07:35:56;;;;;;;23.20;15.08;;;;;;;19.63;42.87;102420.52;1727694;82;21074;-91
2022/11/13 07:38:22;;;;;;;19.62;13.75;;;;;;;19.62;42.87;102414.16;1730739;82;21210;-92
2022/11/13 07:40:49;;;;;;;17.17;14.50;;;;;;;19.61;42.87;102410.56;1719254;83;21032;-92
2022/11/13 07:43:15;;;;;;;19.00;13.80;;;;;;;19.63;42.86;102410.84;1719637;83;21471;-91
2022/11/13 07:45:42;;;;;;;18.92;13.60;;;;;;;19.63;42.86;102408.92;1689087;83;22169;-91
2022/11/13 07:48:08;;;;;;;17.50;13.18;;;;;;;19.63;42.82;102413.06;1719859;83;21062;-91
2022/11/13 07:50:36;;;;;;;18.23;13.55;;;;;;;19.64;42.83;102413.90;1720045;83;21137;-91
2022/11/13 07:53:04;;;;;;;19.90;14.68;;;;;;;19.64;42.80;102406.99;1720059;82;21046;-91
2022/11/13 07:55:33;;;;;;;17.20;13.20;;;;;;;19.64;42.81;102405.06;1699491;83;21037;-92
2022/11/13 07:57:59;;;;;;;17.67;13.55;;;;;;;19.65;42.79;102400.38;1719995;82;21057;-92
2022/11/13 08:00:27;;;;;;;17.90;13.18;;;;;;;19.66;42.77;102399.25;1727796;82;21539;-92
2022/11/13 08:02:53;;;;;;;15.10;12.68;;;;;;;19.66;42.77;102400.08;1746193;82;21435;-92
2022/11/13 08:05:20;;;;;;;16.97;13.20;;;;;;;19.66;42.76;102391.80;1746290;80;21420;-92
2022/11/13 08:07:50;;;;;;;15.40;12.37;;;;;;;19.67;42.77;102398.98;1744680;81;21069;-92
2022/11/13 08:10:18;;;;;;;16.45;13.50;;;;;;;19.69;42.74;102400.91;1737455;81;21060;-92
2022/11/13 08:12:44;;;;;;;17.92;13.62;;;;;;;19.67;42.72;102393.47;1728025;82;21656;-92
2022/11/13 08:15:11;;;;;;;17.65;13.08;;;;;;;19.70;42.71;102398.98;1727586;83;21490;-92
2022/11/13 08:17:37;;;;;;;16.32;12.20;;;;;;;19.69;42.71;102395.38;1727157;83;21059;-91
2022/11/13 08:20:05;;;;;;;18.73;12.10;;;;;;;19.71;42.70;102385.45;1775685;80;21072;-92
2022/11/13 08:22:32;;;;;;;16.82;12.70;;;;;;;19.70;42.69;102384.62;1775482;80;21088;-92
2022/11/13 08:24:58;;;;;;;18.57;12.82;;;;;;;19.71;42.68;102383.53;1775029;80;21056;-92
2022/11/13 08:27:25;;;;;;;14.95;11.40;;;;;;;19.71;42.67;102379.39;1775231;80;21132;-92
2022/11/13 08:29:51;;;;;;;16.85;12.68;;;;;;;19.72;42.67;102377.46;1775150;79;21123;-92
2022/11/13 08:32:18;;;;;;;17.05;12.75;;;;;;;19.72;42.66;102376.91;1775109;80;21103;-92
2022/11/13 08:34:44;;;;;;;17.27;12.35;;;;;;;19.73;42.67;102366.70;1775211;80;21495;-92
2022/11/13 08:37:11;;;;;;;20.12;12.82;;;;;;;19.73;42.66;102374.98;1775220;80;21080;-92
2022/11/13 08:39:37;;;;;;;16.45;12.05;;;;;;;19.73;42.66;102368.88;1775270;80;21260;-92
2022/11/13 08:42:04;;;;;;;16.27;12.33;;;;;;;19.75;42.62;102371.38;1775356;80;21570;-92
2022/11/13 08:44:30;;;;;;;15.85;11.70;;;;;;;19.74;42.64;102365.02;1775438;80;21001;-93
2022/11/13 08:46:57;;;;;;;16.20;12.82;;;;;;;19.75;42.62;102363.09;1775002;80;21084;-92
2022/11/13 08:49:23;;;;;;;15.75;11.90;;;;;;;19.76;42.62;102362.83;1755398;80;21523;-91
2022/11/13 08:51:50;;;;;;;16.80;12.35;;;;;;;19.76;42.60;102366.14;1755560;80;21117;-92
2022/11/13 08:54:16;;;;;;;17.02;12.00;;;;;;;19.76;42.59;102358.69;1774892;80;21040;-92
2022/11/13 08:56:43;;;;;;;16.00;11.85;;;;;;;19.77;42.62;102360.36;1775443;80;22464;-92
2022/11/13 08:59:09;;;;;;;14.50;11.43;;;;;;;19.78;42.61;102365.30;1775401;80;21056;-92
2022/11/13 09:01:36;;;;;;;14.83;12.00;;;;;;;19.79;42.59;102363.66;1769016;80;21021;-93
2022/11/13 09:04:02;;;;;;;15.30;11.43;;;;;;;19.79;42.61;102360.89;1766641;81;21145;-92
2022/11/13 09:06:28;;;;;;;14.68;11.43;;;;;;;19.80;42.58;102357.59;1766206;79;21352;-92
2022/11/13 09:08:55;;;;;;;15.72;11.95;;;;;;;19.82;42.58;102353.98;1766225;80;21095;-92
2022/11/13 09:11:21;;;;;;;14.98;11.10;;;;;;;19.81;42.60;102358.70;1736679;81;21479;-92
2022/11/13 09:13:48;;;;;;;13.98;11.55;;;;;;;19.81;42.57;102347.66;1766620;81;21028;-92
2022/11/13 09:16:20;;;;;;;14.65;11.65;;;;;;;19.83;42.58;102348.73;1766397;80;21101;-91
2022/11/13 09:18:50;;;;;;;14.63;11.28;;;;;;;19.83;42.56;102333.55;1766479;80;21081;-92
2022/11/13 09:21:16;;;;;;;16.45;10.93;;;;;;;19.84;42.58;102333.83;1766356;81;21104;-92
2022/11/13 09:23:43;;;;;;;15.40;10.98;;;;;;;19.84;42.56;102339.36;1766618;81;20978;-92
2022/11/13 09:26:09;;;;;;;15.08;10.50;;;;;;;19.84;42.55;102330.52;1763228;81;21551;-93
2022/11/13 09:28:36;;;;;;;15.35;10.82;;;;;;;19.85;42.58;102329.42;1723350;82;21563;-92
2022/11/13 09:31:05;;;;;;;14.10;11.08;;;;;;;19.85;42.58;102323.91;1735824;82;21015;-92
2022/11/13 09:33:32;;;;;;;12.98;10.68;;;;;;;19.87;42.56;102326.38;1736059;82;21006;-92
2022/11/13 09:35:58;;;;;;;13.13;10.23;;;;;;;19.87;42.57;102322.23;1736004;82;21038;-92
2022/11/13 09:38:25;;;;;;;11.50;10.20;;;;;;;19.88;42.56;102321.95;1735620;82;21057;-92
2022/11/13 09:40:59;;;;;;;13.75;10.93;;;;;;;19.88;42.56;102319.20;1736110;82;21000;-91
2022/11/13 09:43:47;;;;;;;12.90;10.80;;;;;;;19.90;42.55;102316.17;1735647;81;21098;-91
2022/11/13 09:46:39;;;;;;;13.58;11.03;;;;;;;19.89;42.53;102317.27;1735594;82;21528;-92
2022/11/13 09:49:19;;;;;;;13.45;10.20;;;;;;;19.89;42.55;102312.58;1736066;82;21657;-92
2022/11/13 09:51:53;;;;;;;12.98;10.40;;;;;;;19.89;42.52;102308.44;1736227;82;21058;-91
2022/11/13 09:54:19;;;;;;;14.95;10.65;;;;;;;19.90;42.52;102307.89;1735852;82;21632;-91
2022/11/13 09:57:06;;;;;;;12.23;10.05;;;;;;;19.89;42.52;102309.81;1736118;82;21270;-91
2022/11/13 09:59:43;;;;;;;12.25;10.53;;;;;;;19.89;42.53;102305.67;1734984;82;21059;-91
2022/11/13 10:02:56;;;;;;;12.90;10.60;;;;;;;19.90;42.54;102299.02;1753727;80;21092;-91
2022/11/13 10:05:40;;;;;;;13.13;10.00;;;;;;;19.90;42.52;102303.74;1775147;79;21009;-91
2022/11/13 10:08:26;;;;;;;14.13;10.45;;;;;;;19.90;42.54;102294.87;1775378;80;21027;-90
2022/11/13 10:11:16;;;;;;;13.45;10.30;;;;;;;19.89;42.52;102290.48;1775121;80;20997;-92
2022/11/13 10:13:49;;;;;;;13.23;10.17;;;;;;;19.90;42.53;102292.70;1775671;80;21448;-90
2022/11/13 10:16:49;;;;;;;12.35;9.70;;;;;;;19.90;42.55;102284.41;1775092;80;21043;-91
2022/11/13 10:19:33;;;;;;;11.55;9.50;;;;;;;19.89;42.56;102286.34;1775412;79;21040;-91
2022/11/13 10:22:04;;;;;;;13.80;10.25;;;;;;;19.91;42.55;102290.19;1775170;80;21099;-92
2022/11/13 10:24:40;;;;;;;11.25;9.55;;;;;;;19.89;42.56;102282.19;1775449;80;20988;-91
2022/11/13 10:27:11;;;;;;;12.33;9.40;;;;;;;19.90;42.58;102285.79;1775109;80;21006;-91
2022/11/13 10:29:40;;;;;;;12.88;9.98;;;;;;;19.91;42.58;102274.98;1775636;80;21483;-92
2022/11/13 10:32:19;;;;;;;13.93;9.38;;;;;;;19.91;42.59;102275.83;1775448;80;21553;-91
2022/11/13 10:34:54;;;;;;;11.83;9.18;;;;;;;19.91;42.61;102270.30;1775196;80;21483;-91
2022/11/13 10:38:02;;;;;;;12.60;10.28;;;;;;;19.92;42.62;102266.98;1769652;80;20995;-91
2022/11/13 10:40:38;;;;;;;12.37;9.20;;;;;;;19.92;42.61;102262.30;1752313;80;21096;-90
2022/11/13 10:43:08;;;;;;;13.25;9.68;;;;;;;19.91;42.59;102257.03;1749050;81;20991;-91
2022/11/13 10:45:34;;;;;;;10.85;9.10;;;;;;;19.92;42.62;102251.80;1745236;82;21069;-90
2022/11/13 10:48:00;;;;;;;11.73;9.60;;;;;;;19.91;42.62;102257.87;1747656;82;20986;-91
2022/11/13 10:50:29;;;;;;;11.48;9.93;;;;;;;19.93;42.64;102254.29;1720301;82;21097;-91
2022/11/13 10:52:55;;;;;;;10.85;9.45;;;;;;;19.94;42.66;102242.69;1747468;81;21508;-91
2022/11/13 10:55:39;;;;;;;10.70;8.98;;;;;;;19.94;42.63;102238.55;1747264;81;20931;-91
2022/11/13 10:58:15;;;;;;;11.88;9.45;;;;;;;19.93;42.64;102230.81;1747403;81;21493;-91
2022/11/13 11:00:43;;;;;;;11.45;8.98;;;;;;;19.94;42.66;102232.44;1747467;81;21902;-90
2022/11/13 11:03:19;;;;;;;12.10;8.88;;;;;;;19.94;42.64;102229.68;1711184;82;20987;-91
2022/11/13 11:05:54;;;;;;;10.03;8.00;;;;;;;19.94;42.64;102229.68;1729052;81;21446;-91
2022/11/13 11:08:34;;;;;;;10.30;8.25;;;;;;;19.94;42.67;102225.53;1728823;83;21648;-92
2022/11/13 11:14:16;;;;;;;11.70;8.95;;;;;;;19.94;42.68;102220.02;1713974;83;21185;-90
2022/11/13 11:16:43;;;;;;;12.37;8.90;;;;;;;19.94;42.67;102217.25;1707283;82;21002;-91
2022/11/13 11:19:11;;;;;;;10.50;8.33;;;;;;;19.95;42.66;102216.70;1730853;82;21088;-91
2022/11/13 11:21:37;;;;;;;11.05;9.20;;;;;;;19.95;42.66;102216.15;1730899;81;21137;-91